Time;durP1;ratioP1;P1;durP2;ratioP2;P2;SDS_P1;SDS_P2;PMS_P1;PMS_P2;Temp;Humidity;BMP_temperature;BMP_pressure;BME280_temperature;BME280_humidity;BME280_pressure;Samples;Min_cycle;Max_cycle;Signal;HPM_P1;HPM_P2
2022/03/26 00:01:51;;;;;;;12.23;9.88;;;;;;;;;;5076029;28;20197;-84
2022/03/26 00:04:18;;;;;;;14.35;11.18;;;;;;;;;;5076433;28;20332;-83
2022/03/26 00:06:46;;;;;;;11.85;9.60;;;;;;;;;;5075973;28;20649;-84
2022/03/26 00:09:13;;;;;;;14.40;11.15;;;;;;;;;;5075767;28;20205;-84
2022/03/26 00:11:40;;;;;;;13.18;9.60;;;;;;;;;;5075924;28;20212;-84
2022/03/26 00:14:08;;;;;;;11.18;9.30;;;;;;;;;;5075483;28;20221;-84
2022/03/26 00:16:35;;;;;;;14.05;11.75;;;;;;;;;;5075665;28;20220;-84
2022/03/26 00:19:04;;;;;;;11.63;9.48;;;;;;;;;;5075309;28;20196;-84
2022/03/26 00:21:32;;;;;;;15.60;10.40;;;;;;;;;;5075913;28;20207;-84
2022/03/26 00:23:59;;;;;;;13.00;11.13;;;;;;;;;;5075737;28;20244;-84
2022/03/26 00:26:26;;;;;;;13.57;10.82;;;;;;;;;;5075799;28;20615;-84
2022/03/26 00:28:54;;;;;;;13.10;9.52;;;;;;;;;;5075591;28;20600;-84
2022/03/26 00:31:23;;;;;;;15.98;10.20;;;;;;;;;;5075509;28;20637;-84
2022/03/26 00:33:52;;;;;;;17.75;10.95;;;;;;;;;;5058390;28;20618;-84
2022/03/26 00:36:20;;;;;;;13.50;10.63;;;;;;;;;;5075748;28;20715;-83
2022/03/26 00:38:48;;;;;;;14.80;12.35;;;;;;;;;;5075461;28;20263;-84
2022/03/26 00:41:15;;;;;;;14.77;11.00;;;;;;;;;;5076561;28;20201;-84
2022/03/26 00:43:42;;;;;;;18.30;10.48;;;;;;;;;;5074788;28;20220;-84
2022/03/26 00:46:11;;;;;;;17.38;12.50;;;;;;;;;;5076806;28;20209;-84
2022/03/26 00:48:38;;;;;;;17.33;11.45;;;;;;;;;;5075972;28;20201;-84
2022/03/26 00:51:05;;;;;;;16.98;13.13;;;;;;;;;;5076564;28;20204;-84
2022/03/26 00:53:34;;;;;;;18.33;10.80;;;;;;;;;;5075615;28;20217;-84
2022/03/26 00:56:01;;;;;;;13.15;11.00;;;;;;;;;;5075865;28;20208;-84
2022/03/26 00:58:28;;;;;;;15.52;11.65;;;;;;;;;;5076183;28;20205;-84
2022/03/26 01:00:56;;;;;;;13.30;10.80;;;;;;;;;;5076295;28;20197;-84
2022/03/26 01:03:23;;;;;;;14.23;11.60;;;;;;;;;;5075640;28;20217;-84
2022/03/26 01:05:50;;;;;;;13.57;10.80;;;;;;;;;;5075574;28;20205;-84
2022/03/26 01:08:17;;;;;;;11.73;9.70;;;;;;;;;;5075813;28;20682;-84
2022/03/26 01:10:46;;;;;;;12.27;9.50;;;;;;;;;;5075580;28;20587;-84
2022/03/26 01:13:14;;;;;;;13.55;10.57;;;;;;;;;;5075139;28;20221;-84
2022/03/26 01:15:42;;;;;;;13.43;10.85;;;;;;;;;;5075254;28;20204;-84
2022/03/26 01:18:10;;;;;;;12.95;11.02;;;;;;;;;;5076317;28;20597;-84
2022/03/26 01:20:38;;;;;;;14.70;11.88;;;;;;;;;;5075971;28;20201;-84
2022/03/26 01:23:05;;;;;;;15.52;10.98;;;;;;;;;;5075144;28;20213;-84
2022/03/26 01:25:32;;;;;;;10.25;8.25;;;;;;;;;;5075780;28;20558;-84
2022/03/26 01:28:01;;;;;;;10.82;9.68;;;;;;;;;;5076005;28;20701;-84
2022/03/26 01:30:28;;;;;;;10.73;8.65;;;;;;;;;;5075311;28;20205;-83
2022/03/26 01:32:56;;;;;;;10.30;9.00;;;;;;;;;;5075091;28;20250;-84
2022/03/26 01:35:23;;;;;;;16.40;11.25;;;;;;;;;;5077722;28;20677;-84
2022/03/26 01:37:50;;;;;;;14.15;11.05;;;;;;;;;;5076599;28;20228;-85
2022/03/26 01:40:18;;;;;;;13.10;11.02;;;;;;;;;;5074955;28;20212;-81
2022/03/26 01:42:45;;;;;;;17.15;11.55;;;;;;;;;;5074731;28;20593;-83
2022/03/26 01:45:15;;;;;;;14.02;10.73;;;;;;;;;;5074647;28;20205;-83
2022/03/26 01:47:42;;;;;;;14.95;11.38;;;;;;;;;;5075534;28;20262;-83
2022/03/26 01:50:10;;;;;;;12.93;11.15;;;;;;;;;;5074738;28;20201;-83
2022/03/26 01:52:37;;;;;;;13.35;10.73;;;;;;;;;;5074892;28;20231;-83
2022/03/26 01:55:06;;;;;;;13.95;11.52;;;;;;;;;;5075048;28;20205;-83
2022/03/26 01:57:33;;;;;;;16.40;12.40;;;;;;;;;;5074665;28;20220;-83
2022/03/26 02:00:01;;;;;;;13.90;10.75;;;;;;;;;;5074450;28;20665;-82
2022/03/26 02:02:30;;;;;;;12.73;9.80;;;;;;;;;;5074209;28;20225;-83
2022/03/26 02:04:57;;;;;;;14.80;11.55;;;;;;;;;;5074175;28;20205;-82
2022/03/26 02:07:25;;;;;;;12.02;9.18;;;;;;;;;;5078133;28;20666;-83
2022/03/26 02:09:52;;;;;;;12.65;10.55;;;;;;;;;;5078079;28;20247;-83
2022/03/26 02:12:25;;;;;;;13.48;10.45;;;;;;;;;;5078680;28;20232;-83
2022/03/26 02:14:53;;;;;;;15.30;11.55;;;;;;;;;;5078429;28;20205;-83
2022/03/26 02:17:20;;;;;;;17.50;10.85;;;;;;;;;;5078401;28;20278;-83
2022/03/26 02:19:50;;;;;;;14.43;10.43;;;;;;;;;;5077559;28;20556;-83
2022/03/26 02:22:20;;;;;;;16.60;10.75;;;;;;;;;;5077905;28;20221;-83
2022/03/26 02:24:47;;;;;;;14.68;11.52;;;;;;;;;;5077992;28;20262;-83
2022/03/26 02:27:14;;;;;;;15.23;11.20;;;;;;;;;;5077622;28;20200;-83
2022/03/26 02:29:42;;;;;;;13.05;10.35;;;;;;;;;;5077523;28;20661;-83
2022/03/26 02:32:10;;;;;;;11.75;10.00;;;;;;;;;;5077674;28;20212;-83
2022/03/26 02:34:38;;;;;;;10.98;8.57;;;;;;;;;;5076849;28;20234;-83
2022/03/26 02:37:07;;;;;;;8.63;7.22;;;;;;;;;;5077093;28;20253;-83
2022/03/26 02:39:34;;;;;;;11.40;8.63;;;;;;;;;;5078162;28;20201;-83
2022/03/26 02:42:01;;;;;;;11.38;9.15;;;;;;;;;;5077668;28;20204;-83
2022/03/26 02:44:29;;;;;;;9.75;8.38;;;;;;;;;;5078174;28;20197;-83
2022/03/26 02:46:56;;;;;;;9.82;8.77;;;;;;;;;;5077669;28;20207;-83
2022/03/26 02:49:23;;;;;;;9.23;7.35;;;;;;;;;;5077803;28;20212;-83
2022/03/26 02:51:50;;;;;;;8.95;7.70;;;;;;;;;;5076595;28;20213;-83
2022/03/26 02:54:19;;;;;;;11.68;9.30;;;;;;;;;;5078136;28;20228;-83
2022/03/26 02:56:47;;;;;;;13.35;9.48;;;;;;;;;;5077732;28;20201;-83
2022/03/26 02:59:14;;;;;;;10.85;8.98;;;;;;;;;;5076934;28;20224;-82
2022/03/26 03:01:42;;;;;;;9.88;8.80;;;;;;;;;;5077139;28;20254;-83
2022/03/26 03:04:10;;;;;;;9.43;8.20;;;;;;;;;;5076733;28;20739;-83
2022/03/26 03:06:37;;;;;;;9.85;7.38;;;;;;;;;;5084789;28;20201;-82
2022/03/26 03:09:05;;;;;;;11.35;9.45;;;;;;;;;;5086359;28;20250;-82
2022/03/26 03:11:35;;;;;;;17.15;12.45;;;;;;;;;;5086836;28;20193;-83
2022/03/26 03:14:03;;;;;;;14.18;10.85;;;;;;;;;;5084932;28;20231;-82
2022/03/26 03:16:30;;;;;;;11.85;9.50;;;;;;;;;;5081392;28;20228;-83
2022/03/26 03:18:58;;;;;;;12.98;9.75;;;;;;;;;;5076175;28;20220;-83
2022/03/26 03:21:25;;;;;;;12.25;9.45;;;;;;;;;;5076908;28;20212;-84
2022/03/26 03:23:53;;;;;;;12.15;9.65;;;;;;;;;;5077259;28;20395;-83
2022/03/26 03:26:20;;;;;;;12.48;8.77;;;;;;;;;;5076554;28;20624;-84
2022/03/26 03:28:49;;;;;;;11.98;9.68;;;;;;;;;;5076358;28;20208;-84
2022/03/26 03:31:16;;;;;;;13.25;9.45;;;;;;;;;;5076828;28;20208;-84
2022/03/26 03:33:43;;;;;;;13.23;10.13;;;;;;;;;;5076240;28;20237;-84
2022/03/26 03:36:11;;;;;;;12.60;9.57;;;;;;;;;;5076630;28;20197;-83
2022/03/26 03:38:38;;;;;;;12.15;8.73;;;;;;;;;;5076334;28;20228;-83
2022/03/26 03:41:05;;;;;;;12.43;9.48;;;;;;;;;;5075947;28;20231;-83
2022/03/26 03:43:33;;;;;;;12.07;10.88;;;;;;;;;;5075844;28;20225;-83
2022/03/26 03:46:01;;;;;;;12.68;10.05;;;;;;;;;;5075591;28;20254;-83
2022/03/26 03:48:29;;;;;;;13.63;10.27;;;;;;;;;;5076619;28;20898;-84
2022/03/26 03:50:56;;;;;;;9.93;6.95;;;;;;;;;;5076198;28;20204;-83
2022/03/26 03:53:23;;;;;;;8.20;7.22;;;;;;;;;;5075780;28;20229;-83
2022/03/26 03:55:51;;;;;;;10.55;9.02;;;;;;;;;;5075668;28;20246;-83
2022/03/26 03:58:18;;;;;;;8.57;7.70;;;;;;;;;;5075878;28;20225;-83
2022/03/26 04:00:45;;;;;;;11.63;8.32;;;;;;;;;;5075656;28;20266;-83
2022/03/26 04:03:16;;;;;;;10.98;8.43;;;;;;;;;;5076233;28;20227;-83
2022/03/26 04:05:44;;;;;;;11.10;9.93;;;;;;;;;;5056729;28;20217;-83
2022/03/26 04:08:11;;;;;;;10.40;9.27;;;;;;;;;;5055504;28;20819;-84
2022/03/26 04:10:38;;;;;;;11.18;9.95;;;;;;;;;;5055300;28;20198;-83
2022/03/26 04:13:06;;;;;;;10.77;9.07;;;;;;;;;;5055196;28;20291;-83
2022/03/26 04:15:33;;;;;;;9.85;8.85;;;;;;;;;;5055370;28;20224;-83
2022/03/26 04:18:00;;;;;;;9.82;7.28;;;;;;;;;;5055828;28;20206;-83
2022/03/26 04:20:30;;;;;;;8.20;6.95;;;;;;;;;;5055433;28;20198;-83
2022/03/26 04:22:57;;;;;;;8.75;6.55;;;;;;;;;;5055502;28;20232;-83
2022/03/26 04:25:25;;;;;;;8.27;6.75;;;;;;;;;;5055334;28;20569;-83
2022/03/26 04:27:52;;;;;;;9.48;7.93;;;;;;;;;;5054864;28;20228;-83
2022/03/26 04:30:20;;;;;;;8.00;6.72;;;;;;;;;;5055363;28;20674;-83
2022/03/26 04:32:47;;;;;;;8.20;7.40;;;;;;;;;;5054374;28;20233;-83
2022/03/26 04:35:15;;;;;;;7.07;6.13;;;;;;;;;;5071599;28;20205;-83
2022/03/26 04:37:44;;;;;;;8.77;7.57;;;;;;;;;;5075075;28;20204;-83
2022/03/26 04:40:14;;;;;;;8.15;7.38;;;;;;;;;;5075344;28;20216;-83
2022/03/26 04:42:42;;;;;;;7.03;6.32;;;;;;;;;;5075286;28;20247;-84
2022/03/26 04:45:10;;;;;;;9.90;7.65;;;;;;;;;;5074880;28;20228;-83
2022/03/26 04:47:38;;;;;;;9.30;7.38;;;;;;;;;;5074807;28;20228;-84
2022/03/26 04:50:07;;;;;;;8.95;7.40;;;;;;;;;;5076328;28;20675;-84
2022/03/26 04:52:34;;;;;;;10.48;8.43;;;;;;;;;;5075369;28;20279;-83
2022/03/26 04:55:08;;;;;;;10.43;8.57;;;;;;;;;;5075245;28;20220;-84
2022/03/26 04:57:40;;;;;;;10.18;8.63;;;;;;;;;;5075687;28;20266;-84
2022/03/26 05:00:10;;;;;;;10.85;8.27;;;;;;;;;;5075999;28;20228;-83
2022/03/26 05:02:39;;;;;;;10.70;8.50;;;;;;;;;;5076634;28;20228;-83
2022/03/26 05:05:07;;;;;;;9.77;7.60;;;;;;;;;;5076066;28;20205;-83
2022/03/26 05:07:46;;;;;;;9.77;6.50;;;;;;;;;;5075995;28;20201;-83
2022/03/26 05:10:15;;;;;;;7.60;6.20;;;;;;;;;;5076704;28;20227;-83
2022/03/26 05:12:43;;;;;;;6.05;5.50;;;;;;;;;;5075770;28;20310;-84
2022/03/26 05:15:11;;;;;;;7.85;7.10;;;;;;;;;;5075780;28;20200;-83
2022/03/26 05:17:38;;;;;;;7.28;6.57;;;;;;;;;;5075179;28;20660;-83
2022/03/26 05:20:08;;;;;;;8.15;7.07;;;;;;;;;;5075398;28;20311;-83
2022/03/26 05:22:37;;;;;;;6.57;5.75;;;;;;;;;;5075239;28;20217;-84
2022/03/26 05:25:05;;;;;;;6.65;5.38;;;;;;;;;;5079236;28;20292;-83
2022/03/26 05:27:34;;;;;;;5.85;5.07;;;;;;;;;;5075108;28;20691;-83
2022/03/26 05:30:01;;;;;;;5.53;4.90;;;;;;;;;;5075021;28;20196;-84
2022/03/26 05:32:28;;;;;;;5.13;4.63;;;;;;;;;;5075892;28;20232;-83
2022/03/26 05:34:55;;;;;;;5.63;5.03;;;;;;;;;;5081437;28;20279;-82
2022/03/26 05:37:23;;;;;;;5.85;5.25;;;;;;;;;;5087029;28;20657;-83
2022/03/26 05:39:50;;;;;;;8.55;7.65;;;;;;;;;;5088882;28;20221;-82
2022/03/26 05:42:18;;;;;;;7.38;6.43;;;;;;;;;;5093609;28;20204;-82
2022/03/26 05:44:46;;;;;;;6.55;5.85;;;;;;;;;;5093837;28;20201;-82
2022/03/26 05:47:14;;;;;;;6.70;6.10;;;;;;;;;;5085353;28;20299;-78
2022/03/26 05:49:41;;;;;;;8.27;6.93;;;;;;;;;;5078113;28;20201;-78
2022/03/26 05:52:08;;;;;;;6.75;6.05;;;;;;;;;;5077934;28;20200;-77
2022/03/26 05:54:36;;;;;;;8.07;7.03;;;;;;;;;;5077821;28;20201;-78
2022/03/26 05:57:03;;;;;;;9.23;7.45;;;;;;;;;;5078028;28;20212;-78
2022/03/26 05:59:31;;;;;;;8.43;7.03;;;;;;;;;;5077186;28;20274;-77
2022/03/26 06:02:00;;;;;;;8.68;7.80;;;;;;;;;;5077925;28;20722;-78
2022/03/26 06:04:28;;;;;;;8.90;7.70;;;;;;;;;;5077676;28;20266;-78
2022/03/26 06:06:56;;;;;;;9.50;8.00;;;;;;;;;;5078326;28;20662;-77
2022/03/26 06:09:23;;;;;;;10.85;9.70;;;;;;;;;;5078703;28;20193;-78
2022/03/26 06:11:51;;;;;;;9.65;8.15;;;;;;;;;;5078413;28;20203;-77
2022/03/26 06:14:19;;;;;;;10.15;9.15;;;;;;;;;;5078535;28;20653;-79
2022/03/26 06:16:46;;;;;;;10.07;8.45;;;;;;;;;;5078395;28;20634;-77
2022/03/26 06:19:15;;;;;;;13.52;10.88;;;;;;;;;;5078080;28;20225;-77
2022/03/26 06:21:43;;;;;;;11.77;10.50;;;;;;;;;;5077620;28;20205;-77
2022/03/26 06:24:10;;;;;;;14.90;11.63;;;;;;;;;;5077661;28;20220;-78
2022/03/26 06:26:39;;;;;;;14.07;10.50;;;;;;;;;;5077888;28;20234;-78
2022/03/26 06:29:06;;;;;;;11.48;9.48;;;;;;;;;;5077865;28;20243;-78
2022/03/26 06:31:34;;;;;;;11.60;9.30;;;;;;;;;;5077431;28;20204;-78
2022/03/26 06:34:01;;;;;;;11.40;9.75;;;;;;;;;;5077431;28;20235;-78
2022/03/26 06:36:30;;;;;;;13.00;9.70;;;;;;;;;;5077608;28;20238;-78
2022/03/26 06:38:58;;;;;;;10.43;9.27;;;;;;;;;;5077586;28;20208;-78
2022/03/26 06:41:25;;;;;;;13.10;10.32;;;;;;;;;;5077936;28;20221;-77
2022/03/26 06:43:52;;;;;;;13.98;11.88;;;;;;;;;;5078424;28;20229;-78
2022/03/26 06:46:19;;;;;;;19.15;13.30;;;;;;;;;;5078752;28;20250;-78
2022/03/26 06:48:47;;;;;;;15.38;11.68;;;;;;;;;;5078715;28;20249;-79
2022/03/26 06:51:14;;;;;;;15.95;13.90;;;;;;;;;;5080081;28;20250;-79
2022/03/26 06:53:43;;;;;;;14.65;12.75;;;;;;;;;;5076667;28;20253;-78
2022/03/26 06:56:10;;;;;;;16.50;12.70;;;;;;;;;;5074463;28;20193;-78
2022/03/26 06:58:37;;;;;;;15.38;13.05;;;;;;;;;;5074366;28;20197;-79
2022/03/26 07:01:04;;;;;;;19.30;15.07;;;;;;;;;;5075248;28;20267;-78
2022/03/26 07:03:32;;;;;;;19.40;15.52;;;;;;;;;;5075599;28;20231;-78
2022/03/26 07:05:59;;;;;;;16.88;13.57;;;;;;;;;;5074135;28;20280;-78
2022/03/26 07:08:26;;;;;;;19.85;14.88;;;;;;;;;;5074862;28;20208;-80
2022/03/26 07:10:56;;;;;;;18.35;15.45;;;;;;;;;;5074642;28;20266;-79
2022/03/26 07:13:23;;;;;;;15.85;13.48;;;;;;;;;;5074976;28;20278;-79
2022/03/26 07:15:50;;;;;;;25.48;17.70;;;;;;;;;;5074784;28;20209;-79
2022/03/26 07:18:17;;;;;;;19.20;15.55;;;;;;;;;;5074977;28;20196;-79
2022/03/26 07:20:45;;;;;;;19.02;15.38;;;;;;;;;;5075199;28;20251;-79
2022/03/26 07:23:12;;;;;;;21.40;16.52;;;;;;;;;;5074587;28;20312;-79
2022/03/26 07:25:39;;;;;;;16.02;14.07;;;;;;;;;;5074726;28;20667;-79
2022/03/26 07:28:08;;;;;;;19.95;14.15;;;;;;;;;;5074488;28;20677;-78
2022/03/26 07:30:36;;;;;;;19.55;14.18;;;;;;;;;;5075158;28;20263;-79
2022/03/26 07:33:03;;;;;;;20.42;17.20;;;;;;;;;;5074293;28;20236;-78
2022/03/26 07:35:31;;;;;;;23.25;17.25;;;;;;;;;;5074841;28;20208;-79
2022/03/26 07:37:59;;;;;;;17.75;15.52;;;;;;;;;;5074988;28;20203;-79
2022/03/26 07:40:28;;;;;;;15.98;14.25;;;;;;;;;;5075748;28;20279;-78
2022/03/26 07:42:55;;;;;;;17.52;15.20;;;;;;;;;;5075433;28;20221;-79
2022/03/26 07:45:24;;;;;;;18.50;14.82;;;;;;;;;;5074992;28;20201;-80
2022/03/26 07:47:51;;;;;;;17.38;14.23;;;;;;;;;;5075255;28;20205;-78
2022/03/26 07:50:19;;;;;;;20.05;15.40;;;;;;;;;;5073978;28;20201;-79
2022/03/26 07:52:46;;;;;;;23.00;16.08;;;;;;;;;;5073743;28;20224;-78
2022/03/26 07:55:13;;;;;;;17.25;15.20;;;;;;;;;;5073299;28;20579;-79
2022/03/26 07:57:41;;;;;;;20.40;16.38;;;;;;;;;;5074196;28;20205;-79
2022/03/26 08:00:09;;;;;;;20.52;15.18;;;;;;;;;;5074873;28;20204;-79
2022/03/26 08:02:38;;;;;;;18.88;15.95;;;;;;;;;;5074950;28;20822;-79
2022/03/26 08:05:07;;;;;;;17.80;13.77;;;;;;;;;;5074836;28;20213;-80
2022/03/26 08:07:34;;;;;;;18.08;14.73;;;;;;;;;;5075345;28;20201;-79
2022/03/26 08:10:01;;;;;;;17.48;14.85;;;;;;;;;;5074759;28;20259;-79
2022/03/26 08:12:28;;;;;;;18.45;13.05;;;;;;;;;;5074518;28;20270;-79
2022/03/26 08:14:56;;;;;;;13.93;11.45;;;;;;;;;;5076487;28;20231;-79
2022/03/26 08:17:25;;;;;;;14.00;11.40;;;;;;;;;;5076233;28;20196;-79
2022/03/26 08:19:54;;;;;;;17.38;12.25;;;;;;;;;;5077349;28;20201;-79
2022/03/26 08:22:21;;;;;;;12.93;11.50;;;;;;;;;;5079788;28;20235;-78
2022/03/26 08:24:48;;;;;;;14.57;12.63;;;;;;;;;;5080210;28;20584;-80
2022/03/26 08:27:15;;;;;;;13.43;11.18;;;;;;;;;;5081554;28;20231;-78
2022/03/26 08:29:43;;;;;;;11.65;10.35;;;;;;;;;;5080665;28;20212;-79
2022/03/26 08:32:10;;;;;;;17.15;14.40;;;;;;;;;;5080858;28;20223;-80
2022/03/26 08:34:37;;;;;;;13.68;11.38;;;;;;;;;;5082303;28;20589;-80
2022/03/26 08:37:06;;;;;;;17.83;14.63;;;;;;;;;;5080944;28;20201;-80
2022/03/26 08:39:33;;;;;;;13.77;11.55;;;;;;;;;;5077325;28;20209;-80
2022/03/26 08:42:01;;;;;;;14.23;12.73;;;;;;;;;;5072853;28;20278;-79
2022/03/26 08:44:28;;;;;;;13.57;11.85;;;;;;;;;;5072809;28;20203;-79
2022/03/26 08:46:57;;;;;;;12.35;10.98;;;;;;;;;;5073175;28;20212;-79
2022/03/26 08:49:28;;;;;;;18.02;14.35;;;;;;;;;;5074433;28;20239;-80
2022/03/26 08:51:55;;;;;;;12.73;11.43;;;;;;;;;;5075886;28;20201;-79
2022/03/26 08:54:23;;;;;;;14.45;12.10;;;;;;;;;;5075491;28;20220;-80
2022/03/26 08:56:51;;;;;;;13.35;10.80;;;;;;;;;;5075776;28;20216;-78
2022/03/26 08:59:18;;;;;;;14.80;12.38;;;;;;;;;;5075725;28;20254;-81
2022/03/26 09:01:45;;;;;;;17.17;13.52;;;;;;;;;;5074505;28;20224;-80
2022/03/26 09:04:14;;;;;;;17.55;15.02;;;;;;;;;;5075206;28;20229;-80
2022/03/26 09:06:41;;;;;;;15.95;12.68;;;;;;;;;;5075787;28;20622;-80
2022/03/26 09:09:08;;;;;;;16.05;12.70;;;;;;;;;;5075682;28;20242;-80
2022/03/26 09:11:37;;;;;;;14.50;11.00;;;;;;;;;;5073432;28;20226;-80
2022/03/26 09:14:04;;;;;;;11.90;10.13;;;;;;;;;;5074922;28;20320;-81
2022/03/26 09:16:31;;;;;;;15.35;11.35;;;;;;;;;;5075065;28;20209;-80
2022/03/26 09:18:59;;;;;;;12.25;10.35;;;;;;;;;;5077098;28;20204;-80
2022/03/26 09:21:26;;;;;;;15.55;9.85;;;;;;;;;;5074823;28;20224;-80
2022/03/26 09:23:54;;;;;;;13.57;11.30;;;;;;;;;;5075749;28;20224;-79
2022/03/26 09:26:21;;;;;;;17.60;11.43;;;;;;;;;;5075320;28;20656;-81
2022/03/26 09:28:50;;;;;;;12.27;9.23;;;;;;;;;;5074611;28;20196;-81
2022/03/26 09:31:17;;;;;;;11.23;9.30;;;;;;;;;;5073341;28;20200;-81
2022/03/26 09:33:45;;;;;;;14.93;11.32;;;;;;;;;;5073626;28;20229;-81
2022/03/26 09:36:12;;;;;;;10.82;9.35;;;;;;;;;;5074438;28;20207;-80
2022/03/26 09:38:40;;;;;;;10.80;8.77;;;;;;;;;;5075408;28;20200;-80
2022/03/26 09:41:07;;;;;;;16.90;10.32;;;;;;;;;;5073780;28;20205;-81
2022/03/26 09:43:36;;;;;;;15.00;10.38;;;;;;;;;;5074428;28;20229;-81
2022/03/26 09:46:04;;;;;;;13.32;10.02;;;;;;;;;;5074454;28;20201;-82
2022/03/26 09:48:31;;;;;;;14.20;8.70;;;;;;;;;;5075138;28;20216;-81
2022/03/26 09:50:59;;;;;;;19.30;11.13;;;;;;;;;;5075212;28;20258;-81
2022/03/26 09:53:27;;;;;;;14.20;8.60;;;;;;;;;;5074629;28;20221;-80
2022/03/26 09:55:55;;;;;;;11.80;10.00;;;;;;;;;;5074741;28;20208;-81
2022/03/26 09:58:22;;;;;;;21.17;10.90;;;;;;;;;;5074350;28;20700;-81
2022/03/26 10:00:53;;;;;;;8.38;7.53;;;;;;;;;;5074481;28;20201;-82
2022/03/26 10:03:22;;;;;;;12.80;8.90;;;;;;;;;;5074283;28;20256;-82
2022/03/26 10:05:49;;;;;;;8.82;7.22;;;;;;;;;;5075229;28;20200;-80
2022/03/26 10:08:20;;;;;;;9.63;7.43;;;;;;;;;;5074951;28;20748;-79
2022/03/26 10:10:49;;;;;;;11.38;8.80;;;;;;;;;;5075256;28;20204;-81
2022/03/26 10:13:36;;;;;;;13.30;9.07;;;;;;;;;;5074256;28;20221;-80
2022/03/26 10:16:06;;;;;;;13.50;10.18;;;;;;;;;;5074131;28;20270;-81
2022/03/26 10:18:39;;;;;;;9.30;8.30;;;;;;;;;;5073891;28;20589;-81
2022/03/26 10:21:10;;;;;;;11.63;8.48;;;;;;;;;;5075647;28;20585;-81
2022/03/26 10:23:38;;;;;;;8.98;6.78;;;;;;;;;;5084269;28;20244;-82
2022/03/26 10:26:11;;;;;;;8.20;7.25;;;;;;;;;;5080394;28;20201;-81
2022/03/26 10:28:40;;;;;;;8.68;7.78;;;;;;;;;;5079323;28;20205;-81
2022/03/26 10:34:10;;;;;;;7.82;5.85;;;;;;;;;;5077028;28;20311;-82
2022/03/26 10:36:40;;;;;;;6.57;5.38;;;;;;;;;;5078676;28;20587;-82
2022/03/26 10:39:14;;;;;;;7.82;6.80;;;;;;;;;;5077142;28;20205;-82
2022/03/26 10:41:42;;;;;;;10.35;7.70;;;;;;;;;;5078085;28;20208;-81
2022/03/26 10:44:12;;;;;;;8.07;7.30;;;;;;;;;;5078746;28;20228;-82
2022/03/26 10:46:45;;;;;;;6.90;5.53;;;;;;;;;;5078176;28;20235;-81
2022/03/26 10:49:14;;;;;;;6.38;5.78;;;;;;;;;;5077147;28;20205;-83
2022/03/26 10:51:42;;;;;;;5.20;4.70;;;;;;;;;;5077117;28;20200;-82
2022/03/26 10:54:12;;;;;;;7.60;6.80;;;;;;;;;;5076238;28;20258;-80
2022/03/26 10:56:40;;;;;;;6.65;5.57;;;;;;;;;;5076642;28;20564;-80
2022/03/26 10:59:08;;;;;;;5.90;5.30;;;;;;;;;;5076898;28;20292;-81
2022/03/26 11:01:36;;;;;;;8.82;7.72;;;;;;;;;;5077677;28;20324;-81
2022/03/26 11:04:04;;;;;;;6.45;5.75;;;;;;;;;;5076279;28;20236;-81
2022/03/26 11:06:38;;;;;;;6.55;5.30;;;;;;;;;;5077038;28;20208;-81
2022/03/26 11:09:05;;;;;;;4.70;4.30;;;;;;;;;;5076829;28;20220;-82
2022/03/26 11:11:33;;;;;;;6.47;5.85;;;;;;;;;;5076646;28;20206;-81
2022/03/26 11:14:04;;;;;;;8.00;7.15;;;;;;;;;;5076645;28;20274;-81
2022/03/26 11:16:44;;;;;;;9.32;6.35;;;;;;;;;;5077565;28;20226;-82
2022/03/26 11:19:26;;;;;;;6.03;5.43;;;;;;;;;;5076547;28;20204;-82
2022/03/26 11:22:30;;;;;;;7.90;6.18;;;;;;;;;;5076644;28;20254;-82
2022/03/26 11:25:41;;;;;;;8.10;6.22;;;;;;;;;;5014621;28;20202;-81
2022/03/26 11:28:32;;;;;;;10.35;7.50;;;;;;;;;;5075607;28;20665;-81
2022/03/26 11:31:06;;;;;;;7.90;7.07;;;;;;;;;;5076571;28;20226;-82
2022/03/26 11:33:37;;;;;;;9.88;7.50;;;;;;;;;;5075947;28;20630;-81
2022/03/26 11:36:07;;;;;;;6.93;6.32;;;;;;;;;;5077834;28;20212;-80
2022/03/26 11:38:37;;;;;;;10.00;7.85;;;;;;;;;;5080040;28;20196;-79
2022/03/26 11:41:05;;;;;;;9.40;7.70;;;;;;;;;;5082470;28;20197;-80
2022/03/26 11:43:58;;;;;;;7.93;7.13;;;;;;;;;;5079783;28;20236;-81
2022/03/26 11:52:25;;;;;;;8.90;6.75;;;;;;;;;;5077094;28;20220;-80
2022/03/26 11:55:00;;;;;;;8.40;6.55;;;;;;;;;;5081933;28;20203;-80
2022/03/26 11:57:29;;;;;;;9.32;7.75;;;;;;;;;;5081610;28;20197;-80
2022/03/26 11:59:58;;;;;;;8.23;6.90;;;;;;;;;;5085193;28;20231;-79
2022/03/26 12:02:27;;;;;;;9.73;7.32;;;;;;;;;;5088547;28;20228;-80
2022/03/26 12:06:35;;;;;;;10.00;7.88;;;;;;;;;;5090978;28;20231;-80
2022/03/26 12:07:47;;;;;;;9.98;7.88;;;;;;;;;;5088508;28;20204;-81
2022/03/26 12:10:20;;;;;;;6.10;5.55;;;;;;;;;;5083353;28;20211;-80
2022/03/26 12:13:02;;;;;;;9.75;7.57;;;;;;;;;;5078278;28;20266;-80
2022/03/26 12:15:32;;;;;;;8.75;6.43;;;;;;;;;;5077069;28;20211;-80
2022/03/26 12:18:08;;;;;;;7.43;6.68;;;;;;;;;;5075940;28;20197;-80
2022/03/26 12:20:38;;;;;;;9.20;7.72;;;;;;;;;;5080142;28;20201;-80
2022/03/26 12:23:10;;;;;;;6.93;6.03;;;;;;;;;;5078904;28;20225;-80
2022/03/26 12:25:46;;;;;;;7.70;6.00;;;;;;;;;;5080944;28;20263;-80
2022/03/26 12:28:15;;;;;;;6.72;5.32;;;;;;;;;;5079083;28;20261;-80
2022/03/26 12:30:48;;;;;;;5.70;5.20;;;;;;;;;;5079872;28;20207;-79
2022/03/26 12:33:16;;;;;;;6.25;5.75;;;;;;;;;;5079225;28;20641;-80
2022/03/26 12:35:46;;;;;;;6.70;5.82;;;;;;;;;;5060816;28;20248;-80
2022/03/26 12:38:13;;;;;;;4.53;3.85;;;;;;;;;;5058900;28;20225;-79
2022/03/26 12:40:53;;;;;;;3.92;3.55;;;;;;;;;;5060816;28;20206;-80
2022/03/26 12:43:20;;;;;;;3.97;3.05;;;;;;;;;;5057873;28;20233;-80
2022/03/26 12:45:48;;;;;;;3.42;3.08;;;;;;;;;;5060365;28;20208;-78
2022/03/26 12:48:16;;;;;;;4.95;4.00;;;;;;;;;;5058355;28;20243;-80
2022/03/26 12:50:45;;;;;;;3.97;3.65;;;;;;;;;;5060349;28;20229;-79
2022/03/26 12:53:15;;;;;;;3.47;2.85;;;;;;;;;;5057954;28;20221;-80
2022/03/26 12:55:54;;;;;;;2.80;2.60;;;;;;;;;;5060905;28;20701;-80
2022/03/26 13:01:11;;;;;;;3.58;3.28;;;;;;;;;;5061547;28;20772;-79
2022/03/26 13:03:39;;;;;;;4.32;3.78;;;;;;;;;;5061148;28;20759;-80
2022/03/26 13:06:07;;;;;;;3.80;3.03;;;;;;;;;;5078021;28;20197;-79
2022/03/26 13:08:36;;;;;;;3.08;2.83;;;;;;;;;;5078524;28;20208;-79
2022/03/26 13:11:09;;;;;;;4.05;3.65;;;;;;;;;;5077983;28;20209;-79
2022/03/26 13:13:44;;;;;;;6.07;4.80;;;;;;;;;;5075795;28;20274;-79
2022/03/26 13:16:14;;;;;;;5.10;4.20;;;;;;;;;;5077484;28;20200;-79
2022/03/26 13:18:43;;;;;;;4.30;3.70;;;;;;;;;;5077914;28;20669;-80
2022/03/26 13:21:10;;;;;;;5.13;4.63;;;;;;;;;;5076876;28;20219;-78
2022/03/26 13:23:38;;;;;;;3.72;3.42;;;;;;;;;;5077253;28;20782;-79
2022/03/26 13:26:07;;;;;;;3.55;3.25;;;;;;;;;;5077659;28;20681;-79
2022/03/26 13:28:37;;;;;;;4.75;3.58;;;;;;;;;;5076370;28;20200;-79
2022/03/26 13:31:22;;;;;;;4.72;4.32;;;;;;;;;;5076389;28;20201;-79
2022/03/26 13:33:49;;;;;;;3.40;3.10;;;;;;;;;;5076216;28;20229;-79
2022/03/26 13:36:28;;;;;;;3.85;3.55;;;;;;;;;;5075571;28;20672;-79
2022/03/26 13:39:00;;;;;;;3.92;3.63;;;;;;;;;;5075827;28;20263;-79
2022/03/26 13:41:29;;;;;;;5.15;3.45;;;;;;;;;;5075379;28;20247;-79
2022/03/26 13:43:57;;;;;;;5.32;3.17;;;;;;;;;;5074818;28;20228;-78
2022/03/26 13:46:25;;;;;;;3.47;3.17;;;;;;;;;;5074535;28;20246;-78
2022/03/26 13:48:54;;;;;;;3.47;3.08;;;;;;;;;;5074959;28;20692;-79
2022/03/26 13:51:26;;;;;;;4.07;3.08;;;;;;;;;;5075077;28;20658;-79
2022/03/26 13:53:55;;;;;;;5.05;3.58;;;;;;;;;;5074839;28;20213;-78
2022/03/26 13:56:30;;;;;;;4.20;3.80;;;;;;;;;;5074497;28;20193;-78
2022/03/26 13:59:00;;;;;;;4.15;3.83;;;;;;;;;;5076591;28;20196;-78
2022/03/26 14:01:28;;;;;;;3.75;3.45;;;;;;;;;;5077927;28;20209;-79
2022/03/26 14:03:58;;;;;;;10.45;3.70;;;;;;;;;;5083463;28;20301;-79
2022/03/26 14:06:25;;;;;;;5.05;4.07;;;;;;;;;;5082608;28;20288;-78
2022/03/26 14:08:52;;;;;;;4.38;3.95;;;;;;;;;;5081230;28;20197;-79
2022/03/26 14:11:21;;;;;;;6.07;4.60;;;;;;;;;;5080175;28;20568;-77
2022/03/26 14:13:50;;;;;;;4.88;3.85;;;;;;;;;;5082629;28;20221;-78
2022/03/26 14:16:18;;;;;;;4.15;3.85;;;;;;;;;;5084473;28;20732;-78
2022/03/26 14:18:46;;;;;;;3.80;3.50;;;;;;;;;;5081971;28;20201;-78
2022/03/26 14:21:13;;;;;;;5.40;4.60;;;;;;;;;;5083107;28;20385;-78
2022/03/26 14:23:40;;;;;;;5.47;4.18;;;;;;;;;;5081346;28;20314;-79
2022/03/26 14:26:08;;;;;;;4.55;4.10;;;;;;;;;;5083245;28;20209;-79
2022/03/26 14:28:35;;;;;;;3.65;3.33;;;;;;;;;;5081740;28;20200;-78
2022/03/26 14:31:04;;;;;;;4.53;3.70;;;;;;;;;;5080214;28;20209;-79
2022/03/26 14:33:32;;;;;;;4.97;4.47;;;;;;;;;;5079199;28;20233;-79
2022/03/26 14:35:59;;;;;;;4.57;4.18;;;;;;;;;;5077233;28;20239;-79
2022/03/26 14:38:26;;;;;;;5.18;3.95;;;;;;;;;;5078404;28;20243;-78
2022/03/26 14:40:53;;;;;;;4.05;3.65;;;;;;;;;;5077212;28;20529;-77
2022/03/26 14:43:21;;;;;;;3.65;3.35;;;;;;;;;;5076546;28;20278;-76
2022/03/26 14:45:48;;;;;;;5.22;4.60;;;;;;;;;;5076381;28;20225;-77
2022/03/26 14:48:17;;;;;;;4.05;3.75;;;;;;;;;;5078220;28;20207;-78
2022/03/26 14:50:44;;;;;;;5.47;4.97;;;;;;;;;;5077679;28;20240;-78
2022/03/26 14:53:12;;;;;;;4.43;3.97;;;;;;;;;;5077684;28;20727;-79